Aeroporto :
LOGIN :

Iscrizione | Disclaimer

   EN    FR    IT 

 










Sommario :    VFR   VFR Marginale   IFR   IFR Intensivo   IFR Molto Intensivo
Visibilità : 
Base nubi : 
>= 8 km
>= 3000ft
5 / 8 km
1000 / 3000 ft
1500m / 5 km
500 / 1000 ft
800 / 1500m
200 / 500 ft
< 800m
< 200 ft
Simboli :   Temporali  Nebbia  Neve Forte  Precipitazioni Forti  Vento > 20 kt
SIGMETs :   Varie  Temporali  Ghiacco  Turbolenza  Onda orograficha  Ceneri Vulcaniche






- Altitudine del aeroporto : 289 ft


LFYR - Romorantin Pruniers

ULTIMO METAR :
  • 080700Z AUTO 00000KT 9000 NSC M07/M08 Q1033 NOSIG

METARs OBSOLETI :
  • 080630Z AUTO 00000KT CAVOK M07/M08 Q1033
  • 080600Z AUTO 00000KT CAVOK M06/M07 Q1033
  • 080530Z AUTO 00000KT 7000 NSC M06/M07 Q1033
  • 080500Z AUTO 00000KT 9000 NSC M06/M07 Q1033
  • 080430Z AUTO 00000KT 6000 NSC M06/M06 Q1034

TAF AMD TAF LFYR
Valido dal 08 a 06 ore il 09 a 03 ore UTC


080640Z 0806/0903 03004KT CAVOK



MetMap, La meteo Aeronautica in un colpo d'occhio ! - Copyright ORBIFLY Dicembre 2007 - Disclaimer

ORBIFLY MET'MAP TEAM :

Programmazione e sviluppo : Alexandra Zaïnal
Concezione : Baudouin d'Aumeries
Supporto tecnico e logistico : Manuel Goepfert
Aiuto : Marc-Olivier Méhu
Aiuto per la traduzione : Arnaldo La Scala




FONTI E CREDITI :

   NOAA